Metar z połowy godziny Komunikat METAR ze strony awiacja.imgw.pl Metar G30 EPBY METAR EPBY 162230Z 14003KT 8000 SCT023 OVC026 M02/M03 Q1018 R26/590194 =